Time;durP1;ratioP1;P1;durP2;ratioP2;P2;SDS_P1;SDS_P2;PMS_P1;PMS_P2;Temp;Humidity;BMP_temperature;BMP_pressure;BME280_temperature;BME280_humidity;BME280_pressure;Samples;Min_cycle;Max_cycle;Signal;HPM_P1;HPM_P2
2023/06/14 00:00:43;;;;;;;6.72;4.00;;;21.20;93.20;;;;;;5137392;27;20031;-81
2023/06/14 00:03:09;;;;;;;10.52;4.28;;;21.20;93.30;;;;;;5137175;27;20122;-82
2023/06/14 00:05:40;;;;;;;8.27;4.65;;;21.10;93.30;;;;;;5137037;27;20032;-81
2023/06/14 00:08:07;;;;;;;8.80;4.10;;;21.00;93.30;;;;;;5137079;27;20529;-81
2023/06/14 00:10:35;;;;;;;7.22;4.15;;;21.00;93.50;;;;;;5137079;27;20099;-81
2023/06/14 00:13:04;;;;;;;8.18;4.07;;;21.00;93.40;;;;;;5137272;27;20027;-81
2023/06/14 00:15:31;;;;;;;6.32;3.88;;;20.90;93.60;;;;;;5136740;27;20023;-81
2023/06/14 00:18:03;;;;;;;7.00;4.38;;;20.90;93.60;;;;;;5136875;27;20031;-82
2023/06/14 00:20:30;;;;;;;7.00;4.15;;;20.90;93.60;;;;;;5137045;27;20081;-82
2023/06/14 00:22:56;;;;;;;6.78;4.47;;;20.90;93.60;;;;;;5136650;27;20062;-81
2023/06/14 00:25:23;;;;;;;6.65;3.53;;;20.90;93.70;;;;;;5136594;27;20023;-81
2023/06/14 00:27:49;;;;;;;8.57;4.53;;;21.00;93.70;;;;;;5137823;27;20480;-79
2023/06/14 00:30:15;;;;;;;8.95;4.00;;;21.00;93.70;;;;;;5138058;27;20069;-81
2023/06/14 00:32:42;;;;;;;7.13;3.97;;;21.00;93.70;;;;;;5136893;27;20039;-82
2023/06/14 00:35:08;;;;;;;6.85;4.00;;;21.00;93.60;;;;;;5136487;27;20027;-81
2023/06/14 00:37:34;;;;;;;9.80;4.18;;;21.00;93.60;;;;;;5136567;27;20035;-68
2023/06/14 00:40:00;;;;;;;8.15;4.07;;;20.90;93.70;;;;;;5136425;27;20039;-80
2023/06/14 00:42:27;;;;;;;7.55;3.97;;;20.90;93.80;;;;;;5137402;27;20030;-79
2023/06/14 00:44:53;;;;;;;6.10;4.50;;;20.90;93.90;;;;;;5139779;27;20442;-80
2023/06/14 00:47:20;;;;;;;9.65;3.95;;;20.90;93.90;;;;;;5138495;27;20030;-80
2023/06/14 00:49:47;;;;;;;8.77;4.38;;;20.90;93.90;;;;;;5136850;27;20043;-81
2023/06/14 00:52:14;;;;;;;8.98;4.57;;;20.90;93.90;;;;;;5122805;27;20111;-80
2023/06/14 00:54:41;;;;;;;8.77;4.22;;;20.90;93.90;;;;;;5121774;28;20044;-80
2023/06/14 00:57:07;;;;;;;9.32;4.13;;;20.90;94.00;;;;;;5129897;28;20053;-79
2023/06/14 00:59:33;;;;;;;10.23;4.63;;;20.80;94.00;;;;;;5118677;28;20515;-81
2023/06/14 01:01:59;;;;;;;7.50;4.72;;;20.70;94.10;;;;;;5115680;28;20481;-81
2023/06/14 01:04:25;;;;;;;7.28;3.92;;;20.70;94.30;;;;;;5115611;28;20118;-81
2023/06/14 01:07:33;;;;;;;10.55;4.07;;;20.70;94.40;;;;;;5115400;28;20038;-81
2023/06/14 01:10:12;;;;;;;11.27;4.25;;;20.60;94.40;;;;;;5040950;28;20067;-81
2023/06/14 01:12:56;;;;;;;8.93;4.07;;;20.60;94.40;;;;;;5113076;28;20078;-78
2023/06/14 01:15:23;;;;;;;7.72;4.13;;;20.60;94.50;;;;;;5115565;28;20027;-80
2023/06/14 01:17:51;;;;;;;13.23;4.18;;;20.60;94.40;;;;;;5122499;28;20032;-80
2023/06/14 01:20:20;;;;;;;6.80;4.03;;;20.70;94.40;;;;;;5125342;28;20046;-81
2023/06/14 01:22:53;;;;;;;9.15;4.32;;;20.70;94.40;;;;;;5117497;28;20035;-81
2023/06/14 01:25:20;;;;;;;9.73;4.15;;;20.70;94.50;;;;;;5114668;28;20382;-79
2023/06/14 01:27:57;;;;;;;7.93;3.88;;;20.60;94.50;;;;;;5114847;28;20020;-80
2023/06/14 01:30:25;;;;;;;7.97;5.60;;;20.60;94.60;;;;;;5114784;28;20024;-80
2023/06/14 01:32:52;;;;;;;8.55;4.32;;;20.50;94.60;;;;;;5114872;28;20066;-83
2023/06/14 01:35:18;;;;;;;7.95;3.55;;;20.50;94.70;;;;;;5115363;28;20528;-81
2023/06/14 01:37:46;;;;;;;8.52;3.55;;;20.60;94.70;;;;;;5114852;28;20108;-81
2023/06/14 01:40:14;;;;;;;6.32;3.47;;;20.60;94.70;;;;;;5114533;28;20031;-80
2023/06/14 01:42:40;;;;;;;6.72;3.28;;;20.60;94.60;;;;;;5114696;28;20035;-80
2023/06/14 01:45:07;;;;;;;9.40;3.90;;;20.60;94.60;;;;;;5114647;28;20039;-81
2023/06/14 01:47:35;;;;;;;7.65;3.55;;;20.70;94.60;;;;;;5114673;28;20040;-81
2023/06/14 01:50:01;;;;;;;6.70;3.47;;;20.70;94.50;;;;;;5114576;28;20454;-81
2023/06/14 01:52:27;;;;;;;9.73;3.25;;;20.60;94.40;;;;;;5114053;28;20063;-81
2023/06/14 01:54:52;;;;;;;7.95;3.95;;;20.60;94.40;;;;;;5114398;28;20043;-81
2023/06/14 01:57:20;;;;;;;5.75;3.10;;;20.60;94.40;;;;;;5116738;28;20035;-81
2023/06/14 01:59:48;;;;;;;6.32;3.45;;;20.60;94.40;;;;;;5125564;28;20127;-81
2023/06/14 02:02:14;;;;;;;7.15;3.50;;;20.60;94.40;;;;;;5121755;28;20028;-81
2023/06/14 02:04:40;;;;;;;5.85;3.08;;;20.60;94.30;;;;;;5114580;28;20582;-81
2023/06/14 02:07:06;;;;;;;4.40;2.70;;;20.60;94.20;;;;;;5116150;28;20039;-81
2023/06/14 02:09:32;;;;;;;7.10;3.17;;;20.70;94.20;;;;;;5114723;28;20396;-81
2023/06/14 02:11:57;;;;;;;4.88;2.83;;;20.70;94.10;;;;;;5114078;28;20051;-80
2023/06/14 02:14:23;;;;;;;5.53;2.88;;;20.60;94.00;;;;;;5114040;28;20047;-81
2023/06/14 02:16:49;;;;;;;5.70;3.00;;;20.60;93.90;;;;;;5113951;28;20054;-81
2023/06/14 02:19:20;;;;;;;5.32;2.80;;;20.60;93.80;;;;;;5114079;28;20110;-81
2023/06/14 02:21:46;;;;;;;5.90;2.58;;;20.50;93.80;;;;;;5113891;28;20408;-80
2023/06/14 02:24:13;;;;;;;4.80;2.58;;;20.60;94.10;;;;;;5113650;28;20039;-80
2023/06/14 02:26:39;;;;;;;5.95;2.92;;;20.60;93.70;;;;;;5113943;28;20089;-80
2023/06/14 02:29:05;;;;;;;7.18;2.92;;;20.60;93.60;;;;;;5115785;28;20024;-82
2023/06/14 02:31:32;;;;;;;10.05;2.80;;;20.60;93.50;;;;;;5131785;28;20138;-80
2023/06/14 02:33:57;;;;;;;5.38;2.83;;;20.50;93.60;;;;;;5134006;28;20081;-82
2023/06/14 02:36:24;;;;;;;4.43;2.70;;;20.50;93.50;;;;;;5114645;28;20110;-81
2023/06/14 02:38:49;;;;;;;5.53;2.67;;;20.50;93.60;;;;;;5113643;28;20035;-81
2023/06/14 02:41:15;;;;;;;9.20;2.88;;;20.50;93.50;;;;;;5113936;28;20024;-81
2023/06/14 02:43:41;;;;;;;4.95;2.75;;;20.40;93.50;;;;;;5113275;28;20400;-81
2023/06/14 02:46:07;;;;;;;5.90;3.00;;;20.40;93.60;;;;;;5112253;28;20122;-81
2023/06/14 02:48:33;;;;;;;4.18;2.45;;;20.40;93.60;;;;;;5113333;28;20110;-82
2023/06/14 02:50:58;;;;;;;4.95;2.80;;;20.40;93.60;;;;;;5111944;28;20051;-81
2023/06/14 02:53:24;;;;;;;7.57;2.85;;;20.50;93.60;;;;;;5112835;28;20115;-81
2023/06/14 02:55:50;;;;;;;5.20;3.22;;;20.50;93.60;;;;;;5113194;28;20092;-82
2023/06/14 02:58:15;;;;;;;9.13;3.15;;;20.60;93.60;;;;;;5113949;28;20032;-82
2023/06/14 03:00:42;;;;;;;4.72;2.80;;;20.50;93.50;;;;;;5119504;28;20099;-81
2023/06/14 03:03:13;;;;;;;10.10;3.47;;;20.50;93.80;;;;;;5132134;28;20040;-81
2023/06/14 03:05:45;;;;;;;5.78;3.28;;;20.50;93.60;;;;;;5115901;28;20031;-83
2023/06/14 03:08:16;;;;;;;5.18;3.20;;;20.40;93.50;;;;;;5113556;28;20493;-81
2023/06/14 03:10:43;;;;;;;5.68;2.90;;;20.40;93.50;;;;;;5114398;28;20035;-80
2023/06/14 03:13:10;;;;;;;8.25;3.63;;;20.40;93.70;;;;;;5119905;28;20036;-82
2023/06/14 03:15:36;;;;;;;6.57;3.30;;;20.40;93.70;;;;;;5116752;28;20574;-83
2023/06/14 03:18:03;;;;;;;6.95;3.40;;;20.40;93.70;;;;;;5112574;28;20035;-81
2023/06/14 03:20:32;;;;;;;9.20;3.20;;;20.40;93.80;;;;;;5113263;28;20020;-81
2023/06/14 03:22:59;;;;;;;8.18;3.35;;;20.30;93.90;;;;;;5113251;28;20031;-82
2023/06/14 03:25:25;;;;;;;5.38;3.42;;;20.30;93.80;;;;;;5113021;28;20108;-80
2023/06/14 03:27:51;;;;;;;9.68;3.55;;;20.40;93.90;;;;;;5113536;28;20149;-82
2023/06/14 03:30:17;;;;;;;8.10;3.90;;;20.40;94.00;;;;;;5115446;28;20043;-81
2023/06/14 03:32:43;;;;;;;8.98;3.40;;;20.40;94.00;;;;;;5113332;28;20032;-81
2023/06/14 03:35:10;;;;;;;11.45;3.88;;;20.40;94.00;;;;;;5113497;28;20031;-81
2023/06/14 03:37:35;;;;;;;8.05;3.90;;;20.30;94.10;;;;;;5113924;28;20023;-79
2023/06/14 03:40:06;;;;;;;7.75;4.32;;;20.30;94.30;;;;;;5113509;28;20499;-81
2023/06/14 03:42:31;;;;;;;8.55;3.95;;;20.20;94.40;;;;;;5114150;28;20034;-81
2023/06/14 03:44:57;;;;;;;7.28;4.18;;;20.20;94.50;;;;;;5112699;28;20039;-81
2023/06/14 03:47:23;;;;;;;11.50;4.50;;;20.30;94.50;;;;;;5112635;28;20039;-82
2023/06/14 03:49:48;;;;;;;8.10;4.60;;;20.30;94.50;;;;;;5113018;28;20146;-82
2023/06/14 03:52:16;;;;;;;9.45;4.78;;;20.40;94.60;;;;;;5118198;28;20050;-82
2023/06/14 03:54:43;;;;;;;9.45;4.13;;;20.40;94.60;;;;;;5115704;28;20043;-81
2023/06/14 03:57:10;;;;;;;8.35;4.85;;;20.40;94.50;;;;;;5113401;28;20126;-81
2023/06/14 03:59:36;;;;;;;6.70;4.75;;;20.40;94.50;;;;;;5113392;28;20027;-82
2023/06/14 04:02:02;;;;;;;7.13;4.35;;;20.50;94.60;;;;;;5112842;28;20523;-82
2023/06/14 04:04:28;;;;;;;11.98;4.90;;;20.50;94.60;;;;;;5115606;28;20031;-82
2023/06/14 04:06:58;;;;;;;8.93;5.30;;;20.60;94.60;;;;;;5121242;28;20028;-80
2023/06/14 04:09:24;;;;;;;7.35;5.25;;;20.60;94.50;;;;;;5113256;28;20053;-80
2023/06/14 04:11:53;;;;;;;9.82;4.65;;;20.60;94.40;;;;;;5111223;28;20047;-80
2023/06/14 04:14:19;;;;;;;9.32;4.97;;;20.60;94.40;;;;;;5112810;28;20558;-80
2023/06/14 04:16:47;;;;;;;9.25;4.82;;;20.50;94.40;;;;;;5115858;28;20032;-78
2023/06/14 04:19:12;;;;;;;9.43;4.93;;;20.60;94.30;;;;;;5117181;28;20059;-80
2023/06/14 04:21:38;;;;;;;7.97;4.30;;;20.60;94.30;;;;;;5117351;28;20059;-81
2023/06/14 04:24:04;;;;;;;7.32;4.10;;;20.60;94.20;;;;;;5113492;28;20091;-82
2023/06/14 04:26:33;;;;;;;11.07;4.88;;;20.60;94.20;;;;;;5114008;28;20028;-82
2023/06/14 04:29:01;;;;;;;10.45;4.22;;;20.60;94.00;;;;;;5116743;28;20047;-80
2023/06/14 04:31:33;;;;;;;9.25;4.35;;;20.70;94.00;;;;;;5115793;28;20049;-81
2023/06/14 04:33:59;;;;;;;11.57;4.65;;;20.70;94.10;;;;;;5115976;28;20035;-81
2023/06/14 04:36:27;;;;;;;10.55;4.50;;;20.70;93.90;;;;;;5115989;28;20054;-83
2023/06/14 04:38:54;;;;;;;9.05;4.60;;;20.60;93.90;;;;;;5116645;28;20114;-82
2023/06/14 04:41:22;;;;;;;11.68;4.85;;;20.70;93.80;;;;;;5116614;28;20032;-80
2023/06/14 04:43:49;;;;;;;9.90;4.47;;;20.70;93.80;;;;;;5130850;28;20042;-83
2023/06/14 04:46:15;;;;;;;7.75;3.78;;;20.80;93.60;;;;;;5115984;28;20508;-82
2023/06/14 04:48:42;;;;;;;8.43;3.67;;;20.80;93.60;;;;;;5115647;28;20028;-82
2023/06/14 04:51:11;;;;;;;10.27;4.38;;;20.90;93.60;;;;;;5116411;28;20047;-82
2023/06/14 04:53:37;;;;;;;8.38;4.38;;;20.90;93.50;;;;;;5114323;28;20438;-83
2023/06/14 04:56:03;;;;;;;10.70;4.15;;;20.80;93.40;;;;;;5115712;28;20051;-82
2023/06/14 04:58:29;;;;;;;10.00;4.78;;;20.80;93.40;;;;;;5115619;28;20481;-82
2023/06/14 05:00:59;;;;;;;6.47;3.80;;;20.80;93.50;;;;;;5117681;28;20105;-82
2023/06/14 05:03:25;;;;;;;9.88;3.97;;;20.90;93.60;;;;;;5119897;28;20119;-82
2023/06/14 05:05:53;;;;;;;9.40;4.60;;;20.90;93.30;;;;;;5121787;28;20039;-82
2023/06/14 05:08:20;;;;;;;8.75;4.88;;;21.00;93.30;;;;;;5119821;28;20118;-84
2023/06/14 05:10:46;;;;;;;8.05;4.38;;;21.10;93.10;;;;;;5134837;28;20027;-81
2023/06/14 05:13:12;;;;;;;7.82;4.20;;;21.40;93.00;;;;;;5117106;28;20088;-83
2023/06/14 05:15:37;;;;;;;8.68;4.72;;;21.50;92.70;;;;;;5116666;28;20181;-84
2023/06/14 05:18:03;;;;;;;8.30;4.28;;;21.70;92.50;;;;;;5115656;28;20032;-83
2023/06/14 05:20:29;;;;;;;10.05;4.28;;;21.90;92.20;;;;;;5115131;28;20533;-82
2023/06/14 05:22:56;;;;;;;7.50;3.90;;;22.00;91.90;;;;;;5115142;27;20040;-82
2023/06/14 05:25:22;;;;;;;11.60;3.78;;;22.40;91.50;;;;;;5115457;28;20499;-82
2023/06/14 05:27:48;;;;;;;11.65;4.00;;;22.80;90.90;;;;;;5115515;28;20066;-83
2023/06/14 05:30:15;;;;;;;7.53;3.75;;;23.20;90.40;;;;;;5115298;28;20088;-83
2023/06/14 05:32:41;;;;;;;8.60;3.50;;;23.50;89.50;;;;;;5114446;28;20032;-83
2023/06/14 05:35:07;;;;;;;7.65;3.50;;;23.70;88.50;;;;;;5115230;28;20038;-81
2023/06/14 05:37:33;;;;;;;8.68;3.70;;;23.80;87.90;;;;;;5114979;28;20036;-83
2023/06/14 05:39:59;;;;;;;7.03;3.50;;;24.10;87.20;;;;;;5113130;28;20031;-83
2023/06/14 05:42:24;;;;;;;8.52;3.60;;;24.20;86.20;;;;;;5114477;28;20067;-82
2023/06/14 05:44:50;;;;;;;8.32;3.58;;;24.40;85.70;;;;;;5114427;28;20059;-83
2023/06/14 05:47:16;;;;;;;9.95;3.90;;;24.70;85.20;;;;;;5114551;28;20040;-83
2023/06/14 05:49:42;;;;;;;7.85;3.45;;;25.00;84.70;;;;;;5114029;28;20028;-82
2023/06/14 05:52:08;;;;;;;5.63;3.28;;;25.30;82.80;;;;;;5114294;28;20090;-81
2023/06/14 05:54:34;;;;;;;8.90;4.22;;;25.10;82.30;;;;;;5130529;27;20030;-84
2023/06/14 05:57:01;;;;;;;10.48;3.28;;;25.10;82.20;;;;;;5135550;27;20400;-81
2023/06/14 05:59:27;;;;;;;9.07;3.83;;;25.20;82.30;;;;;;5128904;27;20019;-79
2023/06/14 06:01:53;;;;;;;7.25;3.38;;;25.50;81.40;;;;;;5135544;27;20489;-86
2023/06/14 06:04:19;;;;;;;9.75;3.85;;;25.60;80.80;;;;;;5129097;27;20035;-80
2023/06/14 06:06:45;;;;;;;11.05;3.67;;;25.70;80.50;;;;;;5130528;27;20043;-78
2023/06/14 06:09:10;;;;;;;8.15;3.78;;;26.10;79.50;;;;;;5136085;27;20127;-77
2023/06/14 06:11:36;;;;;;;6.22;3.58;;;26.20;79.10;;;;;;5137337;27;20088;-86
2023/06/14 06:14:02;;;;;;;10.60;3.63;;;26.30;78.50;;;;;;5133787;27;20030;-84
2023/06/14 06:16:28;;;;;;;8.35;3.47;;;26.60;77.80;;;;;;5121821;27;20039;-83
2023/06/14 06:18:54;;;;;;;8.27;3.80;;;26.70;77.40;;;;;;5131959;27;20054;-82
2023/06/14 06:21:19;;;;;;;11.68;4.13;;;26.80;77.00;;;;;;5134694;27;20396;-82
2023/06/14 06:23:45;;;;;;;10.43;3.63;;;26.90;76.60;;;;;;5132671;27;20031;-83
2023/06/14 06:26:11;;;;;;;4.85;3.20;;;27.00;76.40;;;;;;5134268;27;20388;-82
2023/06/14 06:28:36;;;;;;;6.65;3.10;;;27.20;76.00;;;;;;5114669;28;20426;-83
2023/06/14 06:31:02;;;;;;;9.05;3.50;;;27.40;75.50;;;;;;5097198;28;20043;-83
2023/06/14 06:33:28;;;;;;;11.05;3.85;;;27.50;75.10;;;;;;5128130;28;20032;-84
2023/06/14 06:35:54;;;;;;;8.75;4.05;;;27.50;74.50;;;;;;5136426;27;20031;-82
2023/06/14 06:38:19;;;;;;;8.32;4.15;;;27.50;74.50;;;;;;5134225;27;20031;-84
2023/06/14 06:40:45;;;;;;;9.27;3.92;;;27.50;74.20;;;;;;5136105;27;20032;-82
2023/06/14 06:43:13;;;;;;;6.63;3.78;;;27.50;74.50;;;;;;5135417;27;20061;-83
2023/06/14 06:45:39;;;;;;;9.75;4.70;;;27.40;74.20;;;;;;5134864;27;20118;-84
2023/06/14 06:48:05;;;;;;;12.25;3.88;;;27.50;74.40;;;;;;5134634;27;20136;-82
2023/06/14 06:50:31;;;;;;;11.05;3.70;;;27.60;74.20;;;;;;5134150;27;20039;-83
2023/06/14 06:52:57;;;;;;;7.45;3.72;;;27.80;73.80;;;;;;5134582;27;20039;-82
2023/06/14 06:55:23;;;;;;;11.65;4.10;;;27.90;73.30;;;;;;5134197;27;20047;-83
2023/06/14 06:57:49;;;;;;;13.35;4.53;;;27.70;73.40;;;;;;5136260;27;20031;-83
2023/06/14 07:00:17;;;;;;;11.50;3.72;;;27.50;73.70;;;;;;5135368;27;20035;-83
2023/06/14 07:02:43;;;;;;;8.40;3.17;;;27.40;73.50;;;;;;5123293;27;20046;-82
2023/06/14 07:05:09;;;;;;;14.13;4.03;;;27.40;73.60;;;;;;5132889;27;20484;-81
2023/06/14 07:07:34;;;;;;;12.48;4.00;;;27.60;73.40;;;;;;5134637;27;20043;-82
2023/06/14 07:10:04;;;;;;;11.57;4.25;;;27.80;73.20;;;;;;5120806;27;20046;-82
2023/06/14 07:12:31;;;;;;;10.27;3.42;;;27.80;73.30;;;;;;5148649;28;20033;-80
2023/06/14 07:14:57;;;;;;;9.55;3.83;;;27.70;73.20;;;;;;5144514;28;20072;-80
2023/06/14 07:17:23;;;;;;;12.77;3.15;;;27.60;73.30;;;;;;5139456;28;20480;-81
2023/06/14 07:19:48;;;;;;;7.95;3.28;;;27.60;73.50;;;;;;5138365;28;20027;-81
2023/06/14 07:22:14;;;;;;;10.77;3.80;;;27.70;73.30;;;;;;5134411;28;20114;-82
2023/06/14 07:24:40;;;;;;;9.30;3.60;;;27.70;73.40;;;;;;5133937;28;20031;-82
2023/06/14 07:27:07;;;;;;;11.23;3.80;;;27.90;73.00;;;;;;5134542;28;20027;-82
2023/06/14 07:29:33;;;;;;;16.33;5.32;;;28.00;72.70;;;;;;5134270;28;20071;-83
2023/06/14 07:31:58;;;;;;;9.57;3.35;;;28.10;72.70;;;;;;5133825;28;20066;-83
2023/06/14 07:34:24;;;;;;;5.97;3.08;;;28.20;72.20;;;;;;5134123;28;20369;-83
2023/06/14 07:36:51;;;;;;;9.82;3.33;;;28.20;71.90;;;;;;5133898;28;20438;-83
2023/06/14 07:39:16;;;;;;;7.63;3.15;;;28.20;71.90;;;;;;5134772;28;20027;-83
2023/06/14 07:41:42;;;;;;;6.80;2.53;;;28.20;72.00;;;;;;5133398;28;20032;-75
2023/06/14 07:44:08;;;;;;;14.07;3.17;;;28.20;71.40;;;;;;5133621;28;20450;-84
2023/06/14 07:46:34;;;;;;;9.32;2.80;;;28.10;71.40;;;;;;5133779;28;20054;-83
2023/06/14 07:49:00;;;;;;;9.00;3.85;;;28.10;71.90;;;;;;5133756;28;20094;-84
2023/06/14 07:51:26;;;;;;;7.43;3.08;;;28.00;72.00;;;;;;5133908;28;20050;-83
2023/06/14 07:53:51;;;;;;;10.73;3.15;;;28.00;72.40;;;;;;5135286;28;20023;-82
2023/06/14 07:56:17;;;;;;;8.48;3.00;;;28.00;72.40;;;;;;5136757;28;20069;-81
2023/06/14 07:58:43;;;;;;;7.97;3.08;;;27.90;72.20;;;;;;5139486;28;20034;-82
2023/06/14 08:01:09;;;;;;;8.60;3.50;;;27.80;72.40;;;;;;5136398;27;20407;-82
2023/06/14 08:03:35;;;;;;;10.07;3.63;;;27.60;72.60;;;;;;5138122;27;20027;-83
2023/06/14 08:06:01;;;;;;;12.18;3.17;;;27.50;72.80;;;;;;5139343;27;20075;-82
2023/06/14 08:08:27;;;;;;;13.38;3.47;;;27.40;73.00;;;;;;5139136;27;20031;-84
2023/06/14 08:10:53;;;;;;;10.90;3.67;;;27.40;73.00;;;;;;5136938;27;20039;-82
2023/06/14 08:13:18;;;;;;;7.15;2.80;;;27.40;73.10;;;;;;5136947;27;20034;-82
2023/06/14 08:15:45;;;;;;;9.15;3.75;;;27.30;73.30;;;;;;5136924;27;20042;-80
2023/06/14 08:18:11;;;;;;;10.38;3.58;;;27.20;73.30;;;;;;5137583;27;20027;-80
2023/06/14 08:20:37;;;;;;;9.77;3.90;;;27.10;73.40;;;;;;5136948;27;20169;-85
2023/06/14 08:23:04;;;;;;;7.28;3.30;;;27.10;73.50;;;;;;5136838;27;20046;-84
2023/06/14 08:25:30;;;;;;;10.00;3.53;;;27.00;73.60;;;;;;5136742;27;20035;-83
2023/06/14 08:27:56;;;;;;;7.35;3.20;;;26.90;73.60;;;;;;5137696;27;20035;-83
2023/06/14 08:30:22;;;;;;;6.18;3.17;;;26.90;74.10;;;;;;5137124;27;20199;-83
2023/06/14 08:32:47;;;;;;;9.05;4.18;;;26.80;74.20;;;;;;5136799;27;20043;-82
2023/06/14 08:35:13;;;;;;;9.93;4.38;;;26.90;74.20;;;;;;5118805;27;20038;-83
2023/06/14 08:37:42;;;;;;;7.30;3.08;;;26.90;74.00;;;;;;5136484;27;20042;-82
2023/06/14 08:40:22;;;;;;;8.73;3.00;;;27.00;74.00;;;;;;5136379;27;20058;-82
2023/06/14 08:42:52;;;;;;;8.18;3.10;;;27.00;73.70;;;;;;5117763;27;20027;-82
2023/06/14 08:45:20;;;;;;;11.43;4.43;;;27.00;73.90;;;;;;5136697;27;20027;-84
2023/06/14 08:47:51;;;;;;;10.38;3.10;;;27.00;73.80;;;;;;5136559;27;20059;-81
2023/06/14 08:50:22;;;;;;;6.95;2.80;;;27.10;73.60;;;;;;5136690;27;20030;-84
2023/06/14 08:52:52;;;;;;;8.15;3.40;;;27.10;73.40;;;;;;5136937;27;20070;-83
2023/06/14 08:55:19;;;;;;;7.93;3.88;;;27.10;73.50;;;;;;5144587;27;20043;-82
2023/06/14 08:57:48;;;;;;;9.98;3.75;;;27.10;73.50;;;;;;5136365;27;20129;-83
2023/06/14 09:00:14;;;;;;;5.22;2.75;;;27.10;73.70;;;;;;5136591;27;20597;-83
2023/06/14 09:02:46;;;;;;;4.95;2.92;;;27.20;73.60;;;;;;5136376;27;20028;-84
2023/06/14 09:05:13;;;;;;;6.00;3.08;;;27.10;73.40;;;;;;5136436;27;20028;-84
2023/06/14 09:07:41;;;;;;;7.63;2.63;;;27.10;73.60;;;;;;5136731;27;20035;-82
2023/06/14 09:10:12;;;;;;;8.32;3.03;;;26.90;73.70;;;;;;5136609;27;20568;-82
2023/06/14 09:12:42;;;;;;;6.63;3.20;;;26.90;73.70;;;;;;5135595;27;20131;-84
2023/06/14 09:15:08;;;;;;;5.93;2.85;;;26.90;73.80;;;;;;5136923;27;20029;-84
2023/06/14 09:17:38;;;;;;;5.80;3.00;;;26.80;73.80;;;;;;5141254;27;20035;-81
2023/06/14 09:20:06;;;;;;;5.38;2.97;;;26.80;74.30;;;;;;5146255;27;20031;-83
2023/06/14 09:22:32;;;;;;;6.25;3.63;;;26.80;74.20;;;;;;5136228;27;20046;-84
2023/06/14 09:24:59;;;;;;;7.47;3.10;;;26.80;74.10;;;;;;5136522;27;20028;-84
2023/06/14 09:27:29;;;;;;;11.93;4.65;;;26.90;74.00;;;;;;5117780;27;20438;-85
2023/06/14 09:29:55;;;;;;;9.27;3.53;;;26.90;74.10;;;;;;5117919;27;20372;-83
2023/06/14 09:32:24;;;;;;;8.65;3.30;;;27.00;74.10;;;;;;5136582;27;20043;-82
2023/06/14 09:34:50;;;;;;;6.20;3.30;;;27.00;74.30;;;;;;5117405;27;20083;-84
2023/06/14 09:37:29;;;;;;;4.90;2.70;;;27.00;74.50;;;;;;5135784;27;20131;-85
2023/06/14 09:39:56;;;;;;;6.65;3.10;;;27.00;74.70;;;;;;5136166;27;20054;-84
2023/06/14 09:42:25;;;;;;;5.35;2.70;;;27.00;74.20;;;;;;5118234;27;20035;-83
2023/06/14 09:44:53;;;;;;;9.57;4.05;;;27.00;74.10;;;;;;5138187;27;20031;-83
2023/06/14 09:47:25;;;;;;;7.72;3.92;;;27.10;74.00;;;;;;5142824;27;20073;-83
2023/06/14 09:49:54;;;;;;;6.15;3.28;;;27.10;73.80;;;;;;5142501;27;20029;-83
2023/06/14 09:52:21;;;;;;;9.98;4.20;;;27.10;73.70;;;;;;5136609;27;20049;-84
2023/06/14 09:54:51;;;;;;;5.53;3.22;;;27.20;73.90;;;;;;5136639;27;20047;-85
2023/06/14 09:57:22;;;;;;;5.45;3.13;;;27.20;73.80;;;;;;5136321;27;20050;-82
2023/06/14 09:59:52;;;;;;;6.47;3.58;;;27.20;73.40;;;;;;5136381;27;20031;-83
2023/06/14 10:02:20;;;;;;;9.15;3.80;;;27.20;73.70;;;;;;5139013;27;20038;-83
2023/06/14 10:04:50;;;;;;;10.70;4.53;;;27.20;73.10;;;;;;5137767;27;20066;-81
2023/06/14 10:07:20;;;;;;;9.20;3.85;;;27.10;73.80;;;;;;5138938;27;20118;-84
2023/06/14 10:09:49;;;;;;;7.53;3.33;;;27.20;73.60;;;;;;5135951;27;20038;-83
2023/06/14 10:12:21;;;;;;;5.90;2.85;;;27.10;73.60;;;;;;5135626;27;20043;-82
2023/06/14 10:14:53;;;;;;;6.00;3.53;;;27.10;73.80;;;;;;5135965;27;20050;-84
2023/06/14 10:17:41;;;;;;;5.80;2.85;;;27.10;73.70;;;;;;5137813;27;20047;-84
2023/06/14 10:20:18;;;;;;;6.35;2.83;;;27.00;73.70;;;;;;5129806;27;20058;-84
2023/06/14 10:22:59;;;;;;;5.97;2.75;;;26.90;73.30;;;;;;5135291;27;20105;-84
2023/06/14 10:25:30;;;;;;;5.28;2.58;;;26.90;73.70;;;;;;5134183;27;20075;-83
2023/06/14 10:28:17;;;;;;;5.95;2.80;;;26.90;73.80;;;;;;5134944;27;20050;-83
2023/06/14 10:31:06;;;;;;;6.00;2.95;;;26.90;73.80;;;;;;5116307;27;20079;-82
2023/06/14 10:33:39;;;;;;;5.75;2.53;;;26.80;73.80;;;;;;5135199;27;20027;-84
2023/06/14 10:36:09;;;;;;;5.75;2.97;;;26.80;73.80;;;;;;5135335;27;20084;-85
2023/06/14 10:38:36;;;;;;;7.95;3.75;;;26.70;73.70;;;;;;5135995;27;20153;-84
2023/06/14 10:41:04;;;;;;;6.47;3.30;;;26.80;73.90;;;;;;5135706;27;20051;-83
2023/06/14 10:43:29;;;;;;;8.38;3.10;;;26.70;74.00;;;;;;5134582;27;20039;-82
2023/06/14 10:46:18;;;;;;;10.32;4.20;;;26.70;74.40;;;;;;5137389;27;20104;-82
2023/06/14 10:48:44;;;;;;;6.68;3.10;;;26.60;74.50;;;;;;5118681;27;20050;-84
2023/06/14 10:51:21;;;;;;;6.95;3.20;;;26.60;74.70;;;;;;5134670;27;20043;-85
2023/06/14 10:53:50;;;;;;;8.20;3.83;;;26.60;74.80;;;;;;5135136;27;20484;-84
2023/06/14 10:56:32;;;;;;;5.47;3.20;;;26.50;74.60;;;;;;5134558;27;20047;-85
2023/06/14 10:58:58;;;;;;;5.93;2.90;;;26.60;74.50;;;;;;5134722;27;20031;-83
2023/06/14 11:01:37;;;;;;;6.82;3.38;;;26.60;74.70;;;;;;5134691;27;20023;-86
2023/06/14 11:04:22;;;;;;;7.35;3.30;;;26.60;74.60;;;;;;5134767;27;20070;-83
2023/06/14 11:06:52;;;;;;;7.03;3.05;;;26.70;74.40;;;;;;5134596;27;20102;-84
2023/06/14 11:09:37;;;;;;;9.27;3.53;;;26.80;73.90;;;;;;5134145;27;20031;-84
2023/06/14 11:12:05;;;;;;;6.97;2.88;;;27.00;73.20;;;;;;5134202;27;20043;-83
2023/06/14 11:14:31;;;;;;;9.07;2.80;;;27.10;73.40;;;;;;5134844;28;20034;-84
2023/06/14 11:16:57;;;;;;;7.22;2.90;;;27.20;73.10;;;;;;5134646;28;20400;-84
2023/06/14 11:19:23;;;;;;;5.80;2.97;;;27.20;72.90;;;;;;5142645;28;20098;-82
2023/06/14 11:21:49;;;;;;;5.63;2.72;;;27.20;72.60;;;;;;5134827;28;20460;-85
2023/06/14 11:24:14;;;;;;;6.85;3.45;;;27.10;70.40;;;;;;5136246;28;20039;-84
2023/06/14 11:26:40;;;;;;;5.15;2.33;;;26.80;70.00;;;;;;5119940;28;20442;-83
2023/06/14 11:29:06;;;;;;;5.90;2.85;;;26.60;69.70;;;;;;5142700;28;20031;-84
2023/06/14 11:31:32;;;;;;;6.57;3.05;;;26.40;69.60;;;;;;5138800;28;20531;-83
2023/06/14 11:33:59;;;;;;;5.68;2.67;;;26.20;69.70;;;;;;5136982;28;20032;-84
2023/06/14 11:36:32;;;;;;;5.78;3.17;;;26.10;69.90;;;;;;5137716;27;20042;-84
2023/06/14 11:39:09;;;;;;;9.50;3.58;;;26.00;70.20;;;;;;5120563;27;20039;-86
2023/06/14 11:41:44;;;;;;;15.35;5.07;;;25.90;70.60;;;;;;5121436;27;20460;-85
2023/06/14 11:44:11;;;;;;;9.27;4.22;;;25.80;71.50;;;;;;5142637;27;20385;-84
2023/06/14 11:46:38;;;;;;;11.23;4.00;;;25.60;74.50;;;;;;5150980;27;20052;-85
2023/06/14 11:49:04;;;;;;;5.88;3.28;;;25.50;76.00;;;;;;5144856;27;20050;-85
2023/06/14 11:51:32;;;;;;;8.23;3.33;;;25.30;76.70;;;;;;5140000;27;20130;-85
2023/06/14 11:53:58;;;;;;;9.90;4.35;;;25.20;77.70;;;;;;5139203;27;20031;-85
2023/06/14 11:56:25;;;;;;;11.75;4.35;;;25.10;78.80;;;;;;5138535;27;20051;-85
2023/06/14 11:58:52;;;;;;;10.05;4.90;;;24.90;80.30;;;;;;5138971;27;20046;-85
2023/06/14 12:01:17;;;;;;;10.00;3.97;;;24.70;81.20;;;;;;5139241;27;20485;-84
2023/06/14 12:03:54;;;;;;;10.00;3.95;;;24.50;81.50;;;;;;5137860;27;20061;-84
2023/06/14 12:06:35;;;;;;;7.88;3.28;;;24.50;81.00;;;;;;5137921;27;20031;-85
2023/06/14 12:09:06;;;;;;;5.63;3.20;;;24.40;80.40;;;;;;5137845;27;20035;-84
2023/06/14 12:11:34;;;;;;;5.18;2.63;;;24.40;80.30;;;;;;5137818;27;20070;-86
2023/06/14 12:14:00;;;;;;;5.57;3.00;;;24.30;79.00;;;;;;5139702;27;20103;-83
2023/06/14 12:16:32;;;;;;;5.97;2.65;;;24.30;79.30;;;;;;5142043;27;20077;-82
2023/06/14 12:19:02;;;;;;;6.18;2.88;;;24.30;79.10;;;;;;5139052;27;20038;-81
2023/06/14 12:21:28;;;;;;;4.63;2.83;;;24.40;79.40;;;;;;5152724;27;20023;-85
2023/06/14 12:23:54;;;;;;;8.65;3.00;;;24.40;80.00;;;;;;5150752;27;20027;-83
2023/06/14 12:26:21;;;;;;;6.40;2.50;;;24.40;80.10;;;;;;5144455;27;20463;-85
2023/06/14 12:28:48;;;;;;;6.68;3.55;;;24.40;79.80;;;;;;5138455;27;20031;-83
2023/06/14 12:31:15;;;;;;;6.28;2.78;;;24.40;79.40;;;;;;5120190;27;20039;-84
2023/06/14 12:33:41;;;;;;;6.22;2.50;;;24.40;79.00;;;;;;5138371;27;20027;-85
2023/06/14 12:36:08;;;;;;;5.57;2.70;;;24.40;79.10;;;;;;5141063;27;20448;-84
2023/06/14 12:38:34;;;;;;;5.35;2.80;;;24.30;78.80;;;;;;5138657;27;20023;-84
2023/06/14 12:41:00;;;;;;;7.32;2.72;;;24.00;78.90;;;;;;5142992;27;20027;-84
2023/06/14 12:43:26;;;;;;;5.15;2.65;;;24.00;79.10;;;;;;5142864;27;20053;-85
2023/06/14 12:45:52;;;;;;;5.63;2.60;;;23.80;79.40;;;;;;5141180;27;20487;-84
2023/06/14 12:48:17;;;;;;;5.38;2.50;;;23.60;79.80;;;;;;5140371;27;20032;-84